sensor_id;sensor_type;location;lat;lon;timestamp;P1;durP1;ratioP1;P2;durP2;ratioP2
12635;SDS011;6383;50.830;7.210;2023-06-10T00:00:29;5.63;;;5.03;;
12635;SDS011;6383;50.830;7.210;2023-06-10T00:02:59;5.67;;;5.17;;
12635;SDS011;6383;50.830;7.210;2023-06-10T00:05:29;6.38;;;4.97;;
12635;SDS011;6383;50.830;7.210;2023-06-10T00:07:58;6.18;;;4.93;;
12635;SDS011;6383;50.830;7.210;2023-06-10T00:10:27;5.32;;;4.82;;
12635;SDS011;6383;50.830;7.210;2023-06-10T00:12:56;7.07;;;5.45;;
12635;SDS011;6383;50.830;7.210;2023-06-10T00:15:24;4.97;;;4.50;;
12635;SDS011;6383;50.830;7.210;2023-06-10T00:17:53;6.82;;;4.55;;
12635;SDS011;6383;50.830;7.210;2023-06-10T00:20:23;5.50;;;4.80;;
12635;SDS011;6383;50.830;7.210;2023-06-10T00:22:52;5.97;;;5.32;;
12635;SDS011;6383;50.830;7.210;2023-06-10T00:25:25;6.05;;;5.28;;
12635;SDS011;6383;50.830;7.210;2023-06-10T00:27:52;8.30;;;5.43;;
12635;SDS011;6383;50.830;7.210;2023-06-10T00:30:22;7.43;;;5.47;;
12635;SDS011;6383;50.830;7.210;2023-06-10T00:32:49;5.70;;;5.10;;
12635;SDS011;6383;50.830;7.210;2023-06-10T00:35:18;5.63;;;5.13;;
12635;SDS011;6383;50.830;7.210;2023-06-10T00:37:46;5.32;;;4.82;;
12635;SDS011;6383;50.830;7.210;2023-06-10T00:40:15;6.07;;;5.00;;
12635;SDS011;6383;50.830;7.210;2023-06-10T00:42:45;5.53;;;5.03;;
12635;SDS011;6383;50.830;7.210;2023-06-10T00:45:12;5.85;;;5.10;;
12635;SDS011;6383;50.830;7.210;2023-06-10T00:47:41;6.07;;;5.32;;
12635;SDS011;6383;50.830;7.210;2023-06-10T00:50:08;6.10;;;5.45;;
12635;SDS011;6383;50.830;7.210;2023-06-10T00:52:38;6.20;;;5.60;;
12635;SDS011;6383;50.830;7.210;2023-06-10T00:55:08;6.30;;;5.70;;
12635;SDS011;6383;50.830;7.210;2023-06-10T00:57:37;7.00;;;5.57;;
12635;SDS011;6383;50.830;7.210;2023-06-10T01:00:07;8.18;;;5.63;;
12635;SDS011;6383;50.830;7.210;2023-06-10T01:02:38;6.70;;;5.40;;
12635;SDS011;6383;50.830;7.210;2023-06-10T01:05:07;7.25;;;5.70;;
12635;SDS011;6383;50.830;7.210;2023-06-10T01:07:38;9.40;;;6.30;;
12635;SDS011;6383;50.830;7.210;2023-06-10T01:10:15;8.45;;;5.95;;
12635;SDS011;6383;50.830;7.210;2023-06-10T01:12:49;6.80;;;5.60;;
12635;SDS011;6383;50.830;7.210;2023-06-10T01:15:25;6.28;;;5.70;;
12635;SDS011;6383;50.830;7.210;2023-06-10T01:17:54;6.57;;;6.05;;
12635;SDS011;6383;50.830;7.210;2023-06-10T01:20:25;6.28;;;5.70;;
12635;SDS011;6383;50.830;7.210;2023-06-10T01:22:57;6.78;;;6.13;;
12635;SDS011;6383;50.830;7.210;2023-06-10T01:25:26;9.27;;;6.90;;
12635;SDS011;6383;50.830;7.210;2023-06-10T01:27:59;5.80;;;5.30;;
12635;SDS011;6383;50.830;7.210;2023-06-10T01:30:31;8.23;;;6.40;;
12635;SDS011;6383;50.830;7.210;2023-06-10T01:33:05;6.60;;;6.10;;
12635;SDS011;6383;50.830;7.210;2023-06-10T01:35:38;6.75;;;6.05;;
12635;SDS011;6383;50.830;7.210;2023-06-10T01:38:09;6.72;;;6.03;;
12635;SDS011;6383;50.830;7.210;2023-06-10T01:40:37;7.00;;;6.30;;
12635;SDS011;6383;50.830;7.210;2023-06-10T01:43:08;6.03;;;5.50;;
12635;SDS011;6383;50.830;7.210;2023-06-10T01:45:36;6.32;;;5.82;;
12635;SDS011;6383;50.830;7.210;2023-06-10T01:48:05;6.53;;;5.63;;
12635;SDS011;6383;50.830;7.210;2023-06-10T01:50:33;6.88;;;6.15;;
12635;SDS011;6383;50.830;7.210;2023-06-10T01:53:01;7.07;;;6.30;;
12635;SDS011;6383;50.830;7.210;2023-06-10T01:55:30;7.05;;;6.03;;
12635;SDS011;6383;50.830;7.210;2023-06-10T01:57:57;7.45;;;6.72;;
12635;SDS011;6383;50.830;7.210;2023-06-10T02:00:25;8.57;;;6.22;;
12635;SDS011;6383;50.830;7.210;2023-06-10T02:02:54;8.40;;;6.28;;
12635;SDS011;6383;50.830;7.210;2023-06-10T02:05:22;7.28;;;6.50;;
12635;SDS011;6383;50.830;7.210;2023-06-10T02:07:51;6.70;;;6.00;;
12635;SDS011;6383;50.830;7.210;2023-06-10T02:10:19;7.18;;;6.47;;
12635;SDS011;6383;50.830;7.210;2023-06-10T02:12:49;8.75;;;6.25;;
12635;SDS011;6383;50.830;7.210;2023-06-10T02:15:18;7.57;;;5.90;;
12635;SDS011;6383;50.830;7.210;2023-06-10T02:17:47;7.82;;;5.88;;
12635;SDS011;6383;50.830;7.210;2023-06-10T02:20:15;10.38;;;6.30;;
12635;SDS011;6383;50.830;7.210;2023-06-10T02:22:42;7.47;;;6.43;;
12635;SDS011;6383;50.830;7.210;2023-06-10T02:25:11;7.05;;;6.40;;
12635;SDS011;6383;50.830;7.210;2023-06-10T02:27:39;7.20;;;6.50;;
12635;SDS011;6383;50.830;7.210;2023-06-10T02:30:08;6.43;;;5.82;;
12635;SDS011;6383;50.830;7.210;2023-06-10T02:32:37;7.15;;;5.95;;
12635;SDS011;6383;50.830;7.210;2023-06-10T02:35:07;6.93;;;6.22;;
12635;SDS011;6383;50.830;7.210;2023-06-10T02:37:38;6.45;;;5.85;;
12635;SDS011;6383;50.830;7.210;2023-06-10T02:40:07;6.43;;;5.82;;
12635;SDS011;6383;50.830;7.210;2023-06-10T02:42:37;8.98;;;6.28;;
12635;SDS011;6383;50.830;7.210;2023-06-10T02:45:08;7.05;;;6.30;;
12635;SDS011;6383;50.830;7.210;2023-06-10T02:47:37;7.85;;;6.47;;
12635;SDS011;6383;50.830;7.210;2023-06-10T02:50:07;6.90;;;6.30;;
12635;SDS011;6383;50.830;7.210;2023-06-10T02:52:36;6.15;;;5.57;;
12635;SDS011;6383;50.830;7.210;2023-06-10T02:55:05;6.45;;;5.95;;
12635;SDS011;6383;50.830;7.210;2023-06-10T02:57:33;6.22;;;5.72;;
12635;SDS011;6383;50.830;7.210;2023-06-10T03:00:01;6.57;;;6.05;;
12635;SDS011;6383;50.830;7.210;2023-06-10T03:02:38;8.82;;;6.75;;
12635;SDS011;6383;50.830;7.210;2023-06-10T03:05:06;6.85;;;6.25;;
12635;SDS011;6383;50.830;7.210;2023-06-10T03:07:37;6.60;;;5.97;;
12635;SDS011;6383;50.830;7.210;2023-06-10T03:10:06;9.77;;;6.07;;
12635;SDS011;6383;50.830;7.210;2023-06-10T03:12:36;7.32;;;6.22;;
12635;SDS011;6383;50.830;7.210;2023-06-10T03:15:05;6.60;;;6.00;;
12635;SDS011;6383;50.830;7.210;2023-06-10T03:17:34;7.72;;;6.65;;
12635;SDS011;6383;50.830;7.210;2023-06-10T03:20:03;7.07;;;6.43;;
12635;SDS011;6383;50.830;7.210;2023-06-10T03:22:31;7.15;;;6.45;;
12635;SDS011;6383;50.830;7.210;2023-06-10T03:25:00;6.80;;;6.20;;
12635;SDS011;6383;50.830;7.210;2023-06-10T03:27:29;7.10;;;6.40;;
12635;SDS011;6383;50.830;7.210;2023-06-10T03:29:57;7.13;;;6.53;;
12635;SDS011;6383;50.830;7.210;2023-06-10T03:32:26;6.82;;;6.30;;
12635;SDS011;6383;50.830;7.210;2023-06-10T03:34:55;7.43;;;6.72;;
12635;SDS011;6383;50.830;7.210;2023-06-10T03:37:26;9.02;;;6.78;;
12635;SDS011;6383;50.830;7.210;2023-06-10T03:39:54;7.90;;;7.03;;
12635;SDS011;6383;50.830;7.210;2023-06-10T03:42:23;7.13;;;6.33;;
12635;SDS011;6383;50.830;7.210;2023-06-10T03:44:52;7.70;;;7.00;;
12635;SDS011;6383;50.830;7.210;2023-06-10T03:47:21;6.90;;;6.20;;
12635;SDS011;6383;50.830;7.210;2023-06-10T03:49:48;7.20;;;6.57;;
12635;SDS011;6383;50.830;7.210;2023-06-10T03:52:18;7.72;;;7.03;;
12635;SDS011;6383;50.830;7.210;2023-06-10T03:54:47;7.00;;;6.30;;
12635;SDS011;6383;50.830;7.210;2023-06-10T03:57:14;7.25;;;6.47;;
12635;SDS011;6383;50.830;7.210;2023-06-10T03:59:42;6.60;;;5.95;;
12635;SDS011;6383;50.830;7.210;2023-06-10T04:02:10;7.30;;;6.70;;
12635;SDS011;6383;50.830;7.210;2023-06-10T04:04:39;7.50;;;6.80;;
12635;SDS011;6383;50.830;7.210;2023-06-10T04:07:07;7.38;;;6.57;;
12635;SDS011;6383;50.830;7.210;2023-06-10T04:09:36;7.85;;;6.85;;
12635;SDS011;6383;50.830;7.210;2023-06-10T04:12:09;7.93;;;7.10;;
12635;SDS011;6383;50.830;7.210;2023-06-10T04:14:38;7.28;;;6.60;;
12635;SDS011;6383;50.830;7.210;2023-06-10T04:17:08;8.75;;;6.90;;
12635;SDS011;6383;50.830;7.210;2023-06-10T04:19:37;7.72;;;7.03;;
12635;SDS011;6383;50.830;7.210;2023-06-10T04:22:06;7.15;;;6.47;;
12635;SDS011;6383;50.830;7.210;2023-06-10T04:24:35;8.00;;;7.20;;
12635;SDS011;6383;50.830;7.210;2023-06-10T04:27:04;6.90;;;6.30;;
12635;SDS011;6383;50.830;7.210;2023-06-10T04:29:33;8.93;;;6.43;;
12635;SDS011;6383;50.830;7.210;2023-06-10T04:32:01;7.50;;;6.80;;
12635;SDS011;6383;50.830;7.210;2023-06-10T04:34:30;7.82;;;6.72;;
12635;SDS011;6383;50.830;7.210;2023-06-10T04:36:58;9.02;;;7.63;;
12635;SDS011;6383;50.830;7.210;2023-06-10T04:39:27;7.85;;;6.63;;
12635;SDS011;6383;50.830;7.210;2023-06-10T04:41:55;7.10;;;6.50;;
12635;SDS011;6383;50.830;7.210;2023-06-10T04:44:24;8.23;;;7.30;;
12635;SDS011;6383;50.830;7.210;2023-06-10T04:46:57;7.53;;;6.82;;
12635;SDS011;6383;50.830;7.210;2023-06-10T04:49:26;7.77;;;7.07;;
12635;SDS011;6383;50.830;7.210;2023-06-10T04:51:56;10.05;;;8.25;;
12635;SDS011;6383;50.830;7.210;2023-06-10T04:54:23;7.90;;;7.20;;
12635;SDS011;6383;50.830;7.210;2023-06-10T04:56:52;10.15;;;7.38;;
12635;SDS011;6383;50.830;7.210;2023-06-10T04:59:21;8.30;;;7.50;;
12635;SDS011;6383;50.830;7.210;2023-06-10T05:01:50;9.38;;;7.88;;
12635;SDS011;6383;50.830;7.210;2023-06-10T05:04:18;8.85;;;8.05;;
12635;SDS011;6383;50.830;7.210;2023-06-10T05:06:47;10.35;;;7.80;;
12635;SDS011;6383;50.830;7.210;2023-06-10T05:09:14;9.43;;;8.52;;
12635;SDS011;6383;50.830;7.210;2023-06-10T05:11:41;9.25;;;8.48;;
12635;SDS011;6383;50.830;7.210;2023-06-10T05:14:10;8.70;;;7.72;;
12635;SDS011;6383;50.830;7.210;2023-06-10T05:16:39;8.03;;;7.33;;
12635;SDS011;6383;50.830;7.210;2023-06-10T05:19:08;9.10;;;7.82;;
12635;SDS011;6383;50.830;7.210;2023-06-10T05:21:38;8.55;;;7.75;;
12635;SDS011;6383;50.830;7.210;2023-06-10T05:24:05;9.85;;;8.85;;
12635;SDS011;6383;50.830;7.210;2023-06-10T05:26:35;7.82;;;7.13;;
12635;SDS011;6383;50.830;7.210;2023-06-10T05:29:04;8.48;;;7.53;;
12635;SDS011;6383;50.830;7.210;2023-06-10T05:31:32;8.13;;;7.22;;
12635;SDS011;6383;50.830;7.210;2023-06-10T05:34:00;9.23;;;7.77;;
12635;SDS011;6383;50.830;7.210;2023-06-10T05:36:28;7.68;;;6.95;;
12635;SDS011;6383;50.830;7.210;2023-06-10T05:39:00;8.05;;;7.25;;
12635;SDS011;6383;50.830;7.210;2023-06-10T05:41:30;7.88;;;6.85;;
12635;SDS011;6383;50.830;7.210;2023-06-10T05:43:58;7.10;;;6.38;;
12635;SDS011;6383;50.830;7.210;2023-06-10T05:46:26;7.30;;;6.60;;
12635;SDS011;6383;50.830;7.210;2023-06-10T05:48:54;7.90;;;7.15;;
12635;SDS011;6383;50.830;7.210;2023-06-10T05:51:27;7.85;;;7.05;;
12635;SDS011;6383;50.830;7.210;2023-06-10T05:54:01;7.45;;;6.68;;
12635;SDS011;6383;50.830;7.210;2023-06-10T05:56:30;7.30;;;6.55;;
12635;SDS011;6383;50.830;7.210;2023-06-10T05:58:57;7.53;;;6.72;;
12635;SDS011;6383;50.830;7.210;2023-06-10T06:01:27;9.02;;;6.32;;
12635;SDS011;6383;50.830;7.210;2023-06-10T06:03:54;6.40;;;5.85;;
12635;SDS011;6383;50.830;7.210;2023-06-10T06:06:23;7.00;;;6.32;;
12635;SDS011;6383;50.830;7.210;2023-06-10T06:08:51;7.55;;;6.40;;
12635;SDS011;6383;50.830;7.210;2023-06-10T06:11:22;8.07;;;5.70;;
12635;SDS011;6383;50.830;7.210;2023-06-10T06:13:51;6.50;;;5.90;;
12635;SDS011;6383;50.830;7.210;2023-06-10T06:16:19;7.20;;;5.95;;
12635;SDS011;6383;50.830;7.210;2023-06-10T06:18:48;7.35;;;6.18;;
12635;SDS011;6383;50.830;7.210;2023-06-10T06:21:17;8.57;;;6.15;;
12635;SDS011;6383;50.830;7.210;2023-06-10T06:23:46;7.13;;;5.90;;
12635;SDS011;6383;50.830;7.210;2023-06-10T06:26:16;6.95;;;6.25;;
12635;SDS011;6383;50.830;7.210;2023-06-10T06:28:45;8.17;;;5.83;;
12635;SDS011;6383;50.830;7.210;2023-06-10T06:31:14;7.05;;;6.03;;
12635;SDS011;6383;50.830;7.210;2023-06-10T06:33:42;8.80;;;6.47;;
12635;SDS011;6383;50.830;7.210;2023-06-10T06:36:10;9.50;;;5.50;;
12635;SDS011;6383;50.830;7.210;2023-06-10T06:38:39;6.93;;;5.78;;
12635;SDS011;6383;50.830;7.210;2023-06-10T06:41:11;6.93;;;6.05;;
12635;SDS011;6383;50.830;7.210;2023-06-10T06:43:38;5.95;;;5.35;;
12635;SDS011;6383;50.830;7.210;2023-06-10T06:46:09;6.30;;;5.70;;
12635;SDS011;6383;50.830;7.210;2023-06-10T06:48:36;8.97;;;5.87;;
12635;SDS011;6383;50.830;7.210;2023-06-10T06:51:04;7.53;;;5.38;;
12635;SDS011;6383;50.830;7.210;2023-06-10T06:53:32;12.73;;;6.47;;
12635;SDS011;6383;50.830;7.210;2023-06-10T06:56:00;9.63;;;6.82;;
12635;SDS011;6383;50.830;7.210;2023-06-10T06:58:30;7.18;;;5.50;;
12635;SDS011;6383;50.830;7.210;2023-06-10T07:00:58;7.38;;;5.72;;
12635;SDS011;6383;50.830;7.210;2023-06-10T07:03:30;6.65;;;5.60;;
12635;SDS011;6383;50.830;7.210;2023-06-10T07:05:59;6.00;;;5.30;;
12635;SDS011;6383;50.830;7.210;2023-06-10T07:08:28;6.25;;;5.13;;
12635;SDS011;6383;50.830;7.210;2023-06-10T07:10:57;5.47;;;4.85;;
12635;SDS011;6383;50.830;7.210;2023-06-10T07:13:26;7.20;;;5.30;;
12635;SDS011;6383;50.830;7.210;2023-06-10T07:15:55;5.60;;;5.00;;
12635;SDS011;6383;50.830;7.210;2023-06-10T07:18:24;5.78;;;4.75;;
12635;SDS011;6383;50.830;7.210;2023-06-10T07:20:53;6.28;;;4.97;;
12635;SDS011;6383;50.830;7.210;2023-06-10T07:23:20;7.63;;;4.45;;
12635;SDS011;6383;50.830;7.210;2023-06-10T07:25:49;6.78;;;4.50;;
12635;SDS011;6383;50.830;7.210;2023-06-10T07:28:18;6.63;;;4.60;;
12635;SDS011;6383;50.830;7.210;2023-06-10T07:30:47;4.97;;;4.47;;
12635;SDS011;6383;50.830;7.210;2023-06-10T07:33:17;5.63;;;4.50;;
12635;SDS011;6383;50.830;7.210;2023-06-10T07:35:44;5.43;;;4.32;;
12635;SDS011;6383;50.830;7.210;2023-06-10T07:38:15;5.53;;;4.50;;
12635;SDS011;6383;50.830;7.210;2023-06-10T07:40:44;5.13;;;4.35;;
12635;SDS011;6383;50.830;7.210;2023-06-10T07:43:13;8.55;;;5.05;;
12635;SDS011;6383;50.830;7.210;2023-06-10T07:45:42;6.80;;;4.30;;
12635;SDS011;6383;50.830;7.210;2023-06-10T07:48:11;5.18;;;4.30;;
12635;SDS011;6383;50.830;7.210;2023-06-10T07:50:41;4.75;;;4.35;;
12635;SDS011;6383;50.830;7.210;2023-06-10T07:53:09;6.85;;;4.43;;
12635;SDS011;6383;50.830;7.210;2023-06-10T07:55:39;7.97;;;4.38;;
12635;SDS011;6383;50.830;7.210;2023-06-10T07:58:08;5.63;;;4.70;;
12635;SDS011;6383;50.830;7.210;2023-06-10T08:00:37;5.35;;;4.57;;
12635;SDS011;6383;50.830;7.210;2023-06-10T08:03:07;7.38;;;4.88;;
12635;SDS011;6383;50.830;7.210;2023-06-10T08:05:35;5.80;;;4.45;;
12635;SDS011;6383;50.830;7.210;2023-06-10T08:08:02;5.30;;;4.45;;
12635;SDS011;6383;50.830;7.210;2023-06-10T08:10:31;4.57;;;4.10;;
12635;SDS011;6383;50.830;7.210;2023-06-10T08:13:02;4.45;;;4.03;;
12635;SDS011;6383;50.830;7.210;2023-06-10T08:15:31;4.82;;;4.15;;
12635;SDS011;6383;50.830;7.210;2023-06-10T08:17:59;6.93;;;4.65;;
12635;SDS011;6383;50.830;7.210;2023-06-10T08:20:27;6.57;;;4.55;;
12635;SDS011;6383;50.830;7.210;2023-06-10T08:22:56;6.25;;;4.65;;
12635;SDS011;6383;50.830;7.210;2023-06-10T08:25:25;5.95;;;3.90;;
12635;SDS011;6383;50.830;7.210;2023-06-10T08:27:54;8.13;;;4.30;;
12635;SDS011;6383;50.830;7.210;2023-06-10T08:30:23;7.43;;;4.45;;
12635;SDS011;6383;50.830;7.210;2023-06-10T08:32:52;5.28;;;4.75;;
12635;SDS011;6383;50.830;7.210;2023-06-10T08:35:20;6.57;;;4.70;;
12635;SDS011;6383;50.830;7.210;2023-06-10T08:37:49;8.15;;;4.72;;
12635;SDS011;6383;50.830;7.210;2023-06-10T08:40:17;6.70;;;4.32;;
12635;SDS011;6383;50.830;7.210;2023-06-10T08:42:48;6.70;;;4.17;;
12635;SDS011;6383;50.830;7.210;2023-06-10T08:45:21;4.78;;;4.20;;
12635;SDS011;6383;50.830;7.210;2023-06-10T08:47:53;7.43;;;4.72;;
12635;SDS011;6383;50.830;7.210;2023-06-10T08:50:25;5.15;;;4.32;;
12635;SDS011;6383;50.830;7.210;2023-06-10T08:52:57;8.75;;;4.55;;
12635;SDS011;6383;50.830;7.210;2023-06-10T08:55:29;4.68;;;4.28;;
12635;SDS011;6383;50.830;7.210;2023-06-10T08:58:01;5.10;;;4.60;;
12635;SDS011;6383;50.830;7.210;2023-06-10T09:00:32;5.50;;;4.30;;
12635;SDS011;6383;50.830;7.210;2023-06-10T09:03:02;6.72;;;4.40;;
12635;SDS011;6383;50.830;7.210;2023-06-10T09:05:36;5.50;;;3.93;;
12635;SDS011;6383;50.830;7.210;2023-06-10T09:08:05;7.00;;;4.38;;
12635;SDS011;6383;50.830;7.210;2023-06-10T09:10:35;5.28;;;4.22;;
12635;SDS011;6383;50.830;7.210;2023-06-10T09:13:03;5.45;;;4.50;;
12635;SDS011;6383;50.830;7.210;2023-06-10T09:15:32;7.55;;;4.40;;
12635;SDS011;6383;50.830;7.210;2023-06-10T09:18:00;4.70;;;4.15;;
12635;SDS011;6383;50.830;7.210;2023-06-10T09:20:29;6.88;;;4.75;;
12635;SDS011;6383;50.830;7.210;2023-06-10T09:22:59;6.32;;;4.30;;
12635;SDS011;6383;50.830;7.210;2023-06-10T09:25:34;4.93;;;4.43;;
12635;SDS011;6383;50.830;7.210;2023-06-10T09:28:08;6.93;;;4.30;;
12635;SDS011;6383;50.830;7.210;2023-06-10T09:30:43;6.47;;;4.30;;
12635;SDS011;6383;50.830;7.210;2023-06-10T09:33:13;4.78;;;4.32;;
12635;SDS011;6383;50.830;7.210;2023-06-10T09:35:46;6.68;;;4.47;;
12635;SDS011;6383;50.830;7.210;2023-06-10T09:38:20;5.22;;;4.13;;
12635;SDS011;6383;50.830;7.210;2023-06-10T09:40:49;6.03;;;4.35;;
12635;SDS011;6383;50.830;7.210;2023-06-10T09:43:19;6.17;;;4.27;;
12635;SDS011;6383;50.830;7.210;2023-06-10T09:45:50;4.25;;;3.83;;
12635;SDS011;6383;50.830;7.210;2023-06-10T09:48:19;6.97;;;3.80;;
12635;SDS011;6383;50.830;7.210;2023-06-10T09:50:49;6.43;;;4.20;;
12635;SDS011;6383;50.830;7.210;2023-06-10T09:53:18;5.25;;;4.15;;
12635;SDS011;6383;50.830;7.210;2023-06-10T09:55:49;5.03;;;4.03;;
12635;SDS011;6383;50.830;7.210;2023-06-10T09:58:33;6.03;;;3.92;;
12635;SDS011;6383;50.830;7.210;2023-06-10T10:01:07;5.50;;;4.13;;
12635;SDS011;6383;50.830;7.210;2023-06-10T10:03:44;6.00;;;4.00;;
12635;SDS011;6383;50.830;7.210;2023-06-10T10:06:14;4.68;;;3.97;;
12635;SDS011;6383;50.830;7.210;2023-06-10T10:08:43;5.03;;;4.03;;
12635;SDS011;6383;50.830;7.210;2023-06-10T10:11:13;7.97;;;4.03;;
12635;SDS011;6383;50.830;7.210;2023-06-10T10:13:46;4.38;;;3.60;;
12635;SDS011;6383;50.830;7.210;2023-06-10T10:16:19;7.33;;;4.33;;
12635;SDS011;6383;50.830;7.210;2023-06-10T10:18:51;8.15;;;3.97;;
12635;SDS011;6383;50.830;7.210;2023-06-10T10:21:23;4.32;;;3.92;;
12635;SDS011;6383;50.830;7.210;2023-06-10T10:24:00;5.10;;;3.72;;
12635;SDS011;6383;50.830;7.210;2023-06-10T10:26:31;5.15;;;4.10;;
12635;SDS011;6383;50.830;7.210;2023-06-10T10:29:05;5.22;;;4.00;;
12635;SDS011;6383;50.830;7.210;2023-06-10T10:31:39;5.18;;;3.45;;
12635;SDS011;6383;50.830;7.210;2023-06-10T10:34:12;4.63;;;3.95;;
12635;SDS011;6383;50.830;7.210;2023-06-10T10:36:43;4.55;;;3.90;;
12635;SDS011;6383;50.830;7.210;2023-06-10T10:39:13;5.78;;;3.85;;
12635;SDS011;6383;50.830;7.210;2023-06-10T10:41:42;5.80;;;3.83;;
12635;SDS011;6383;50.830;7.210;2023-06-10T10:44:12;5.18;;;3.95;;
12635;SDS011;6383;50.830;7.210;2023-06-10T10:46:45;3.93;;;3.40;;
12635;SDS011;6383;50.830;7.210;2023-06-10T10:49:18;5.07;;;3.75;;
12635;SDS011;6383;50.830;7.210;2023-06-10T10:51:56;4.20;;;3.60;;
12635;SDS011;6383;50.830;7.210;2023-06-10T10:54:30;5.20;;;3.58;;
12635;SDS011;6383;50.830;7.210;2023-06-10T10:57:10;6.97;;;3.80;;
12635;SDS011;6383;50.830;7.210;2023-06-10T11:02:36;5.80;;;3.70;;
12635;SDS011;6383;50.830;7.210;2023-06-10T11:05:10;9.20;;;3.70;;
12635;SDS011;6383;50.830;7.210;2023-06-10T11:07:40;10.93;;;3.75;;
12635;SDS011;6383;50.830;7.210;2023-06-10T11:10:10;15.65;;;4.15;;
12635;SDS011;6383;50.830;7.210;2023-06-10T11:12:40;9.32;;;3.83;;
12635;SDS011;6383;50.830;7.210;2023-06-10T11:15:22;6.65;;;3.50;;
12635;SDS011;6383;50.830;7.210;2023-06-10T11:18:09;4.53;;;3.60;;
12635;SDS011;6383;50.830;7.210;2023-06-10T11:20:44;9.93;;;3.80;;
12635;SDS011;6383;50.830;7.210;2023-06-10T11:23:24;6.93;;;3.88;;
12635;SDS011;6383;50.830;7.210;2023-06-10T11:28:39;5.40;;;3.55;;
12635;SDS011;6383;50.830;7.210;2023-06-10T11:31:08;7.35;;;4.05;;
12635;SDS011;6383;50.830;7.210;2023-06-10T11:33:48;7.38;;;3.63;;
12635;SDS011;6383;50.830;7.210;2023-06-10T11:36:20;4.82;;;3.50;;
12635;SDS011;6383;50.830;7.210;2023-06-10T11:38:50;4.50;;;3.38;;
12635;SDS011;6383;50.830;7.210;2023-06-10T11:41:23;4.38;;;3.60;;
12635;SDS011;6383;50.830;7.210;2023-06-10T11:43:54;4.80;;;3.92;;
12635;SDS011;6383;50.830;7.210;2023-06-10T11:46:23;4.60;;;3.78;;
12635;SDS011;6383;50.830;7.210;2023-06-10T11:48:57;4.65;;;3.53;;
12635;SDS011;6383;50.830;7.210;2023-06-10T11:51:27;4.85;;;3.50;;
12635;SDS011;6383;50.830;7.210;2023-06-10T11:53:56;4.50;;;3.50;;
12635;SDS011;6383;50.830;7.210;2023-06-10T11:56:26;3.67;;;3.37;;
12635;SDS011;6383;50.830;7.210;2023-06-10T11:58:56;10.43;;;3.53;;
12635;SDS011;6383;50.830;7.210;2023-06-10T12:01:27;4.88;;;3.45;;
12635;SDS011;6383;50.830;7.210;2023-06-10T12:03:59;5.05;;;3.50;;
12635;SDS011;6383;50.830;7.210;2023-06-10T12:06:39;5.30;;;3.28;;
12635;SDS011;6383;50.830;7.210;2023-06-10T12:09:13;18.50;;;4.43;;
12635;SDS011;6383;50.830;7.210;2023-06-10T12:11:43;6.60;;;3.05;;
12635;SDS011;6383;50.830;7.210;2023-06-10T12:14:13;9.30;;;3.40;;
12635;SDS011;6383;50.830;7.210;2023-06-10T12:16:48;7.30;;;3.50;;
12635;SDS011;6383;50.830;7.210;2023-06-10T12:19:19;6.05;;;3.35;;
12635;SDS011;6383;50.830;7.210;2023-06-10T12:21:48;4.40;;;3.45;;
12635;SDS011;6383;50.830;7.210;2023-06-10T12:24:17;11.77;;;3.58;;
12635;SDS011;6383;50.830;7.210;2023-06-10T12:26:46;4.82;;;3.05;;
12635;SDS011;6383;50.830;7.210;2023-06-10T12:29:19;7.95;;;3.40;;
12635;SDS011;6383;50.830;7.210;2023-06-10T12:31:55;6.53;;;3.28;;
12635;SDS011;6383;50.830;7.210;2023-06-10T12:34:31;4.50;;;3.50;;
12635;SDS011;6383;50.830;7.210;2023-06-10T12:36:59;5.13;;;3.08;;
12635;SDS011;6383;50.830;7.210;2023-06-10T12:39:32;6.32;;;3.38;;
12635;SDS011;6383;50.830;7.210;2023-06-10T12:42:01;3.60;;;3.28;;
12635;SDS011;6383;50.830;7.210;2023-06-10T12:44:32;6.30;;;3.00;;
12635;SDS011;6383;50.830;7.210;2023-06-10T12:47:07;5.67;;;3.17;;
12635;SDS011;6383;50.830;7.210;2023-06-10T12:49:38;4.53;;;3.42;;
12635;SDS011;6383;50.830;7.210;2023-06-10T12:52:06;7.43;;;3.27;;
12635;SDS011;6383;50.830;7.210;2023-06-10T12:54:34;6.65;;;6.05;;
12635;SDS011;6383;50.830;7.210;2023-06-10T12:57:03;5.40;;;4.90;;
12635;SDS011;6383;50.830;7.210;2023-06-10T12:59:32;7.70;;;5.88;;
12635;SDS011;6383;50.830;7.210;2023-06-10T13:01:59;6.20;;;3.50;;
12635;SDS011;6383;50.830;7.210;2023-06-10T13:04:27;5.47;;;3.30;;
12635;SDS011;6383;50.830;7.210;2023-06-10T13:06:57;5.28;;;4.78;;
12635;SDS011;6383;50.830;7.210;2023-06-10T13:09:26;5.18;;;4.28;;
12635;SDS011;6383;50.830;7.210;2023-06-10T13:11:56;4.07;;;3.10;;
12635;SDS011;6383;50.830;7.210;2023-06-10T13:14:27;4.20;;;2.78;;
12635;SDS011;6383;50.830;7.210;2023-06-10T13:16:56;5.10;;;3.30;;
12635;SDS011;6383;50.830;7.210;2023-06-10T13:19:25;7.18;;;3.20;;
12635;SDS011;6383;50.830;7.210;2023-06-10T13:21:53;8.25;;;3.58;;
12635;SDS011;6383;50.830;7.210;2023-06-10T13:24:23;5.15;;;2.97;;
12635;SDS011;6383;50.830;7.210;2023-06-10T13:26:52;4.43;;;3.13;;
12635;SDS011;6383;50.830;7.210;2023-06-10T13:29:21;3.20;;;2.90;;
12635;SDS011;6383;50.830;7.210;2023-06-10T13:31:50;3.38;;;3.08;;
12635;SDS011;6383;50.830;7.210;2023-06-10T13:34:20;4.18;;;3.20;;
12635;SDS011;6383;50.830;7.210;2023-06-10T13:36:49;3.60;;;3.20;;
12635;SDS011;6383;50.830;7.210;2023-06-10T13:39:17;5.18;;;3.20;;
12635;SDS011;6383;50.830;7.210;2023-06-10T13:41:47;3.75;;;3.45;;
12635;SDS011;6383;50.830;7.210;2023-06-10T13:44:16;6.25;;;2.90;;
12635;SDS011;6383;50.830;7.210;2023-06-10T13:46:45;5.93;;;3.50;;
12635;SDS011;6383;50.830;7.210;2023-06-10T13:49:14;4.53;;;3.00;;
12635;SDS011;6383;50.830;7.210;2023-06-10T13:51:43;3.75;;;3.10;;
12635;SDS011;6383;50.830;7.210;2023-06-10T13:54:13;3.53;;;3.20;;
12635;SDS011;6383;50.830;7.210;2023-06-10T13:56:43;3.38;;;2.80;;
12635;SDS011;6383;50.830;7.210;2023-06-10T13:59:13;3.92;;;3.40;;
12635;SDS011;6383;50.830;7.210;2023-06-10T14:01:42;4.70;;;3.27;;
12635;SDS011;6383;50.830;7.210;2023-06-10T14:04:12;4.35;;;2.95;;
12635;SDS011;6383;50.830;7.210;2023-06-10T14:06:41;7.03;;;3.10;;
12635;SDS011;6383;50.830;7.210;2023-06-10T14:09:12;3.92;;;2.95;;
12635;SDS011;6383;50.830;7.210;2023-06-10T14:11:40;6.05;;;2.70;;
12635;SDS011;6383;50.830;7.210;2023-06-10T14:14:09;4.55;;;3.38;;
12635;SDS011;6383;50.830;7.210;2023-06-10T14:16:38;8.68;;;3.80;;
12635;SDS011;6383;50.830;7.210;2023-06-10T14:19:06;6.60;;;3.20;;
12635;SDS011;6383;50.830;7.210;2023-06-10T14:21:35;3.60;;;3.10;;
12635;SDS011;6383;50.830;7.210;2023-06-10T14:24:04;5.13;;;3.00;;
12635;SDS011;6383;50.830;7.210;2023-06-10T14:26:32;3.95;;;3.10;;
12635;SDS011;6383;50.830;7.210;2023-06-10T14:29:01;5.13;;;3.03;;
12635;SDS011;6383;50.830;7.210;2023-06-10T14:31:31;5.25;;;2.72;;
12635;SDS011;6383;50.830;7.210;2023-06-10T14:34:01;7.78;;;2.80;;
12635;SDS011;6383;50.830;7.210;2023-06-10T14:36:29;4.47;;;2.83;;
12635;SDS011;6383;50.830;7.210;2023-06-10T14:38:57;5.68;;;3.20;;
12635;SDS011;6383;50.830;7.210;2023-06-10T14:41:26;4.40;;;2.60;;
12635;SDS011;6383;50.830;7.210;2023-06-10T14:43:54;5.03;;;2.78;;
12635;SDS011;6383;50.830;7.210;2023-06-10T14:46:23;4.35;;;2.67;;
12635;SDS011;6383;50.830;7.210;2023-06-10T14:48:52;4.45;;;2.85;;
12635;SDS011;6383;50.830;7.210;2023-06-10T14:51:22;4.40;;;2.90;;
12635;SDS011;6383;50.830;7.210;2023-06-10T14:53:50;5.78;;;2.72;;
12635;SDS011;6383;50.830;7.210;2023-06-10T14:56:20;6.63;;;3.10;;
12635;SDS011;6383;50.830;7.210;2023-06-10T14:58:49;5.77;;;2.60;;
12635;SDS011;6383;50.830;7.210;2023-06-10T15:01:18;4.00;;;2.80;;
12635;SDS011;6383;50.830;7.210;2023-06-10T15:03:46;15.85;;;7.50;;
12635;SDS011;6383;50.830;7.210;2023-06-10T15:06:16;7.53;;;4.23;;
12635;SDS011;6383;50.830;7.210;2023-06-10T15:08:49;3.25;;;2.83;;
12635;SDS011;6383;50.830;7.210;2023-06-10T15:11:18;5.53;;;3.97;;
12635;SDS011;6383;50.830;7.210;2023-06-10T15:13:47;4.72;;;3.15;;
12635;SDS011;6383;50.830;7.210;2023-06-10T15:16:16;8.50;;;3.63;;
12635;SDS011;6383;50.830;7.210;2023-06-10T15:18:46;4.22;;;3.13;;
12635;SDS011;6383;50.830;7.210;2023-06-10T15:21:15;5.45;;;3.28;;